Time,TemperatureF,DewpointF,PressureIn,WindDirection,WindDirectionDegrees,WindSpeedMPH,WindSpeedGustMPH,Humidity,HourlyPrecipIn,Conditions,Clouds,dailyrainin,SoftwareType,DateUTC
2013-07-02 00:02:00,67.0,63.0,30.07,SW,219,4.0,7.0,88,0.00,,,0.00,weatherlink.com 1.10,2013-07-01 22:02:00,
2013-07-02 00:17:00,66.9,64.0,30.07,SW,231,2.0,5.0,89,0.00,,,0.00,weatherlink.com 1.10,2013-07-01 22:17:00,
2013-07-02 00:32:00,66.9,63.0,30.06,WSW,242,6.0,8.0,88,0.00,,,0.00,weatherlink.com 1.10,2013-07-01 22:32:00,
2013-07-02 00:47:00,66.9,63.0,30.06,WSW,252,6.0,9.0,87,0.00,,,0.00,weatherlink.com 1.10,2013-07-01 22:47:00,
2013-07-02 01:02:00,66.5,63.0,30.07,SSW,200,3.0,6.0,87,0.00,,,0.00,weatherlink.com 1.10,2013-07-01 23:02:00,
2013-07-02 01:17:00,66.1,63.0,30.07,South,179,0.0,5.0,88,0.00,,,0.00,weatherlink.com 1.10,2013-07-01 23:17:00,
2013-07-02 01:32:00,66.1,63.0,30.07,SW,215,3.0,6.0,88,0.00,,,0.00,weatherlink.com 1.10,2013-07-01 23:32:00,
2013-07-02 01:47:00,66.2,63.0,30.07,SW,217,3.0,4.0,88,0.00,,,0.00,weatherlink.com 1.10,2013-07-01 23:47:00,
2013-07-02 02:02:00,66.7,63.0,30.07,West,266,5.0,8.0,87,0.00,,,0.00,weatherlink.com 1.10,2013-07-02 00:02:00,
2013-07-02 02:17:00,67.8,63.0,30.06,WSW,242,4.0,11.0,84,0.00,,,0.00,weatherlink.com 1.10,2013-07-02 00:17:00,
2013-07-02 02:32:00,68.1,62.0,30.07,WSW,248,5.0,8.0,82,0.00,,,0.00,weatherlink.com 1.10,2013-07-02 00:32:00,
2013-07-02 02:47:00,68.3,62.0,30.08,West,270,4.0,7.0,81,0.00,,,0.00,weatherlink.com 1.10,2013-07-02 00:47:00,
2013-07-02 03:02:00,68.3,62.0,30.08,West,271,4.0,7.0,81,0.00,,,0.00,weatherlink.com 1.10,2013-07-02 01:02:00,
2013-07-02 03:17:00,68.3,62.0,30.07,West,276,2.0,6.0,81,0.00,,,0.00,weatherlink.com 1.10,2013-07-02 01:17:00,
2013-07-02 03:32:00,68.2,62.0,30.06,NW,307,1.0,4.0,81,0.00,,,0.00,weatherlink.com 1.10,2013-07-02 01:32:00,
2013-07-02 03:47:00,68.3,62.0,30.06,WNW,295,2.0,4.0,81,0.00,,,0.00,weatherlink.com 1.10,2013-07-02 01:47:00,
2013-07-02 04:02:00,67.9,62.0,30.05,WNW,302,3.0,4.0,81,0.00,,,0.00,weatherlink.com 1.10,2013-07-02 02:02:00,
2013-07-02 04:17:00,67.6,62.0,30.05,NW,304,0.0,1.0,81,0.00,,,0.00,weatherlink.com 1.10,2013-07-02 02:17:00,
2013-07-02 04:32:00,67.6,62.0,30.05,NW,304,0.0,2.0,82,0.00,,,0.00,weatherlink.com 1.10,2013-07-02 02:32:00,
2013-07-02 04:47:00,67.3,62.0,30.05,NW,304,0.0,1.0,82,0.00,,,0.00,weatherlink.com 1.10,2013-07-02 02:47:00,
2013-07-02 05:02:00,66.6,61.0,30.05,SSE,155,3.0,4.0,83,0.00,,,0.00,weatherlink.com 1.10,2013-07-02 03:02:00,
2013-07-02 05:17:00,65.5,61.0,30.05,South,176,3.0,6.0,85,0.00,,,0.00,weatherlink.com 1.10,2013-07-02 03:17:00,
2013-07-02 05:32:00,64.2,60.0,30.04,South,184,4.0,6.0,86,0.00,,,0.00,weatherlink.com 1.10,2013-07-02 03:32:00,
2013-07-02 05:47:00,63.9,60.0,30.04,SSW,192,4.0,7.0,87,0.00,,,0.00,weatherlink.com 1.10,2013-07-02 03:47:00,
2013-07-02 06:03:00,63.4,60.0,30.04,South,187,3.0,4.0,88,0.00,,,0.00,weatherlink.com 1.10,2013-07-02 04:03:00,
2013-07-02 06:18:00,63.2,60.0,30.04,SSW,195,2.0,4.0,89,0.00,,,0.00,weatherlink.com 1.10,2013-07-02 04:18:00,
2013-07-02 06:33:00,63.0,60.0,30.04,South,187,2.0,3.0,89,0.00,,,0.00,weatherlink.com 1.10,2013-07-02 04:33:00,
2013-07-02 06:48:00,63.9,61.0,30.04,SW,220,2.0,4.0,89,0.00,,,0.00,weatherlink.com 1.10,2013-07-02 04:48:00,
2013-07-02 07:03:00,64.9,60.0,30.05,ESE,104,0.0,1.0,85,0.00,,,0.00,weatherlink.com 1.10,2013-07-02 05:03:00,
2013-07-02 07:18:00,64.9,60.0,30.05,ESE,120,1.0,1.0,85,0.00,,,0.00,weatherlink.com 1.10,2013-07-02 05:18:00,
2013-07-02 07:33:00,64.4,60.0,30.06,SE,143,2.0,4.0,86,0.00,,,0.00,weatherlink.com 1.10,2013-07-02 05:33:00,
2013-07-02 07:48:00,66.1,62.0,30.06,West,270,0.0,2.0,86,0.00,,,0.00,weatherlink.com 1.10,2013-07-02 05:48:00,
2013-07-02 08:03:00,68.9,63.0,30.06,West,278,3.0,3.0,81,0.00,,,0.00,weatherlink.com 1.10,2013-07-02 06:03:00,
2013-07-02 08:18:00,68.7,62.0,30.07,WNW,284,0.0,7.0,80,0.00,,,0.00,weatherlink.com 1.10,2013-07-02 06:18:00,
2013-07-02 08:33:00,69.0,62.0,30.07,WNW,297,3.0,5.0,79,0.00,,,0.00,weatherlink.com 1.10,2013-07-02 06:33:00,
2013-07-02 08:48:00,70.1,63.0,30.06,WSW,257,2.0,7.0,78,0.00,,,0.00,weatherlink.com 1.10,2013-07-02 06:48:00,
2013-07-02 09:03:00,70.3,63.0,30.07,West,274,4.0,9.0,77,0.00,,,0.00,weatherlink.com 1.10,2013-07-02 07:03:00,
2013-07-02 09:18:00,70.9,63.0,30.07,WSW,246,4.0,9.0,75,0.00,,,0.00,weatherlink.com 1.10,2013-07-02 07:18:00,
2013-07-02 09:33:00,71.3,63.0,30.07,NW,307,7.0,12.0,74,0.00,,,0.00,weatherlink.com 1.10,2013-07-02 07:33:00,
2013-07-02 09:48:00,71.6,63.0,30.07,West,267,5.0,10.0,73,0.00,,,0.00,weatherlink.com 1.10,2013-07-02 07:48:00,
2013-07-02 10:03:00,72.6,63.0,30.07,West,274,6.0,10.0,72,0.00,,,0.00,weatherlink.com 1.10,2013-07-02 08:03:00,
2013-07-02 10:18:00,72.3,63.0,30.06,WNW,302,7.0,11.0,72,0.00,,,0.00,weatherlink.com 1.10,2013-07-02 08:18:00,
2013-07-02 10:33:00,72.5,63.0,30.07,WSW,257,5.0,14.0,72,0.00,,,0.00,weatherlink.com 1.10,2013-07-02 08:33:00,
2013-07-02 10:47:00,72.8,63.0,30.06,West,274,5.0,11.0,71,0.00,,,0.00,weatherlink.com 1.10,2013-07-02 08:47:00,
2013-07-02 11:02:00,73.1,63.0,30.07,WNW,302,7.0,11.0,71,0.00,,,0.00,weatherlink.com 1.10,2013-07-02 09:02:00,
2013-07-02 11:17:00,73.6,64.0,30.06,WNW,284,7.0,9.0,71,0.00,,,0.00,weatherlink.com 1.10,2013-07-02 09:17:00,
2013-07-02 11:32:00,74.5,63.0,30.06,West,266,5.0,8.0,68,0.00,,,0.00,weatherlink.com 1.10,2013-07-02 09:32:00,
2013-07-02 11:47:00,74.3,64.0,30.06,WSW,243,7.0,16.0,70,0.00,,,0.00,weatherlink.com 1.10,2013-07-02 09:47:00,
2013-07-02 12:02:00,74.3,64.0,30.06,NW,310,7.0,14.0,70,0.00,,,0.00,weatherlink.com 1.10,2013-07-02 10:02:00,
2013-07-02 12:17:00,74.4,64.0,30.06,WNW,290,5.0,10.0,69,0.00,,,0.00,weatherlink.com 1.10,2013-07-02 10:17:00,
2013-07-02 12:32:00,74.3,64.0,30.06,NW,309,11.0,16.0,70,0.00,,,0.00,weatherlink.com 1.10,2013-07-02 10:32:00,
2013-07-02 12:47:00,74.3,64.0,30.07,WSW,241,7.0,14.0,70,0.00,,,0.00,weatherlink.com 1.10,2013-07-02 10:47:00,
2013-07-02 13:02:00,74.9,63.0,30.06,WNW,290,3.0,14.0,67,0.00,,,0.00,weatherlink.com 1.10,2013-07-02 11:02:00,
2013-07-02 13:17:00,74.4,64.0,30.07,West,280,8.0,14.0,71,0.00,,,0.00,weatherlink.com 1.10,2013-07-02 11:17:00,
2013-07-02 13:32:00,75.0,64.0,30.07,West,278,6.0,14.0,69,0.00,,,0.00,weatherlink.com 1.10,2013-07-02 11:32:00,
2013-07-02 13:47:00,75.1,65.0,30.06,WNW,302,6.0,13.0,71,0.00,,,0.00,weatherlink.com 1.10,2013-07-02 11:47:00,
2013-07-02 14:03:00,75.6,64.0,30.06,West,270,6.0,12.0,68,0.00,,,0.00,weatherlink.com 1.10,2013-07-02 12:03:00,
2013-07-02 14:18:00,76.1,64.0,30.06,WSW,257,6.0,11.0,67,0.00,,,0.00,weatherlink.com 1.10,2013-07-02 12:18:00,
2013-07-02 14:33:00,76.5,65.0,30.05,West,278,8.0,14.0,67,0.00,,,0.00,weatherlink.com 1.10,2013-07-02 12:33:00,
2013-07-02 14:48:00,76.6,65.0,30.06,West,260,7.0,10.0,67,0.00,,,0.00,weatherlink.com 1.10,2013-07-02 12:48:00,
2013-07-02 15:03:00,76.4,64.0,30.06,WNW,288,5.0,11.0,66,0.00,,,0.00,weatherlink.com 1.10,2013-07-02 13:03:00,
2013-07-02 15:18:00,76.8,66.0,30.05,NW,318,7.0,14.0,69,0.00,,,0.00,weatherlink.com 1.10,2013-07-02 13:18:00,
2013-07-02 15:33:00,76.2,65.0,30.05,West,276,8.0,13.0,69,0.00,,,0.00,weatherlink.com 1.10,2013-07-02 13:33:00,
2013-07-02 15:48:00,76.1,65.0,30.05,WNW,284,10.0,16.0,68,0.00,,,0.00,weatherlink.com 1.10,2013-07-02 13:48:00,
2013-07-02 16:03:00,76.6,66.0,30.05,WNW,293,8.0,14.0,69,0.00,,,0.00,weatherlink.com 1.10,2013-07-02 14:03:00,
2013-07-02 16:18:00,76.5,66.0,30.05,WNW,285,10.0,16.0,70,0.00,,,0.00,weatherlink.com 1.10,2013-07-02 14:18:00,
2013-07-02 16:33:00,76.1,65.0,30.05,WNW,286,5.0,15.0,68,0.00,,,0.00,weatherlink.com 1.10,2013-07-02 14:33:00,
2013-07-02 16:48:00,76.0,66.0,30.05,WNW,283,9.0,14.0,70,0.00,,,0.00,weatherlink.com 1.10,2013-07-02 14:48:00,
2013-07-02 17:03:00,75.5,65.0,30.05,West,266,10.0,14.0,71,0.00,,,0.00,weatherlink.com 1.10,2013-07-02 15:03:00,
2013-07-02 17:18:00,75.6,65.0,30.05,WNW,289,9.0,16.0,70,0.00,,,0.00,weatherlink.com 1.10,2013-07-02 15:18:00,
2013-07-02 17:33:00,75.5,65.0,30.04,WNW,293,7.0,14.0,69,0.00,,,0.00,weatherlink.com 1.10,2013-07-02 15:33:00,
2013-07-02 17:48:00,75.4,65.0,30.04,West,276,9.0,14.0,69,0.00,,,0.00,weatherlink.com 1.10,2013-07-02 15:48:00,
2013-07-02 18:03:00,75.5,65.0,30.04,NW,312,11.0,13.0,69,0.00,,,0.00,weatherlink.com 1.10,2013-07-02 16:03:00,
2013-07-02 18:18:00,74.8,65.0,30.04,WNW,297,10.0,15.0,72,0.00,,,0.00,weatherlink.com 1.10,2013-07-02 16:18:00,
2013-07-02 18:33:00,74.1,66.0,30.04,WNW,284,10.0,14.0,75,0.00,,,0.00,weatherlink.com 1.10,2013-07-02 16:33:00,
2013-07-02 18:48:00,74.1,66.0,30.03,WNW,303,8.0,12.0,75,0.00,,,0.00,weatherlink.com 1.10,2013-07-02 16:48:00,
2013-07-02 19:03:00,74.0,66.0,30.03,WNW,290,9.0,13.0,76,0.00,,,0.00,weatherlink.com 1.10,2013-07-02 17:03:00,
2013-07-02 19:18:00,73.4,66.0,30.03,WSW,245,11.0,14.0,77,0.00,,,0.00,weatherlink.com 1.10,2013-07-02 17:18:00,
2013-07-02 19:33:00,73.1,66.0,30.02,West,278,9.0,12.0,77,0.00,,,0.00,weatherlink.com 1.10,2013-07-02 17:33:00,
2013-07-02 19:48:00,73.0,66.0,30.02,WSW,249,6.0,13.0,78,0.00,,,0.00,weatherlink.com 1.10,2013-07-02 17:48:00,
2013-07-02 20:03:00,72.6,65.0,30.02,West,264,7.0,11.0,78,0.00,,,0.00,weatherlink.com 1.10,2013-07-02 18:03:00,
2013-07-02 20:18:00,72.4,66.0,30.02,West,281,5.0,12.0,79,0.00,,,0.00,weatherlink.com 1.10,2013-07-02 18:18:00,
2013-07-02 20:33:00,72.0,66.0,30.02,WNW,285,5.0,13.0,80,0.00,,,0.00,weatherlink.com 1.10,2013-07-02 18:33:00,
2013-07-02 20:49:00,71.4,65.0,30.03,WNW,295,5.0,13.0,81,0.00,,,0.00,weatherlink.com 1.10,2013-07-02 18:49:00,
2013-07-02 21:03:00,70.8,65.0,30.03,West,262,6.0,11.0,82,0.00,,,0.00,weatherlink.com 1.10,2013-07-02 19:03:00,
2013-07-02 21:18:00,70.5,65.0,30.02,West,274,9.0,12.0,83,0.00,,,0.00,weatherlink.com 1.10,2013-07-02 19:18:00,
2013-07-02 21:33:00,70.2,65.0,30.03,WNW,284,4.0,10.0,84,0.00,,,0.00,weatherlink.com 1.10,2013-07-02 19:33:00,
2013-07-02 21:48:00,70.1,65.0,30.03,WNW,291,3.0,9.0,84,0.00,,,0.00,weatherlink.com 1.10,2013-07-02 19:48:00,
2013-07-02 22:03:00,69.9,65.0,30.04,WNW,284,3.0,7.0,84,0.00,,,0.00,weatherlink.com 1.10,2013-07-02 20:03:00,
2013-07-02 22:18:00,69.7,65.0,30.05,WNW,298,4.0,7.0,84,0.00,,,0.00,weatherlink.com 1.10,2013-07-02 20:18:00,
2013-07-02 22:33:00,69.6,65.0,30.05,West,269,3.0,7.0,84,0.00,,,0.00,weatherlink.com 1.10,2013-07-02 20:33:00,
2013-07-02 22:48:00,69.6,65.0,30.06,West,270,3.0,5.0,85,0.00,,,0.00,weatherlink.com 1.10,2013-07-02 20:48:00,
2013-07-02 23:03:00,69.6,65.0,30.06,West,262,1.0,6.0,85,0.00,,,0.00,weatherlink.com 1.10,2013-07-02 21:03:00,
2013-07-02 23:18:00,68.7,64.0,30.07,SW,228,3.0,4.0,85,0.00,,,0.00,weatherlink.com 1.10,2013-07-02 21:18:00,
2013-07-02 23:34:00,69.0,65.0,30.06,West,269,4.0,5.0,86,0.00,,,0.00,weatherlink.com 1.10,2013-07-02 21:34:00,
2013-07-02 23:49:00,69.0,65.0,30.07,West,262,0.0,4.0,87,0.00,,,0.00,weatherlink.com 1.10,2013-07-02 21:49:00,